Canandaigua, New York
Current Conditions -  °F | °C
As of 11:53 PM on Thursday 30 Oct 2014 (Local Time) from KPEO Reporting Station
Broken Clouds Broken Clouds  
Wind Chill: 36°   Ceiling: 4600
Heat Index: 36°   Visibility: 10mi
Dew Point: 33°   Wind: 3mph
Humidity: 89%   Direction: 220°SW
Pressure: 30.03"   Gusts: NA
Location:  42.89°N, 77.28°W
Report Text: KPEO 310353Z AUTO 22003KT 10SM BKN046 02/01 A3003 RMK AO2 SLP176 T00220006
Loading
Personal Weather Stations






























Interactive Weather Map
Tropical Storm Tracking
New forecast layout! Learn more

10-Day Weather Forecast

Advertisements
Track Severe Weather on mobile